Time;durP1;ratioP1;P1;durP2;ratioP2;P2;SDS_P1;SDS_P2;PMS_P1;PMS_P2;Temp;Humidity;BMP_temperature;BMP_pressure;BME280_temperature;BME280_humidity;BME280_pressure;Samples;Min_cycle;Max_cycle;Signal;HPM_P1;HPM_P2
2019/10/18 00:00:44;;;;;;;6.9;4.4;;;;;;;13.64;78.83984;959.335;;;;
2019/10/18 00:03:09;;;;;;;6.6;4.2;;;;;;;13.58;79.47852;959.3337;;;;
2019/10/18 00:05:34;;;;;;;8;4.6;;;;;;;13.55;78.71875;959.3769;;;;
2019/10/18 00:07:59;;;;;;;8.1;4.7;;;;;;;13.53;79.29688;959.3892;;;;
2019/10/18 00:10:25;;;;;;;9.1;4.6;;;;;;;13.55;78.55664;959.3638;;;;
2019/10/18 00:12:50;;;;;;;7.1;4.4;;;;;;;13.58;77.76367;959.3959;;;;
2019/10/18 00:15:15;;;;;;;6.9;4.2;;;;;;;13.56;78.78027;959.3805;;;;
2019/10/18 00:17:40;;;;;;;4.9;4.2;;;;;;;13.5;78.93066;959.371;;;;
2019/10/18 00:20:06;;;;;;;5.7;4.3;;;;;;;13.47;78.75293;959.3798;;;;
2019/10/18 00:22:31;;;;;;;6.3;4.2;;;;;;;13.53;78.19629;959.3738;;;;
2019/10/18 00:24:56;;;;;;;6.3;4.4;;;;;;;13.52;78.46094;959.3385;;;;
2019/10/18 00:27:21;;;;;;;8.1;5.1;;;;;;;13.46;78.87695;959.2894;;;;
2019/10/18 00:29:46;;;;;;;5.6;4.4;;;;;;;13.52;78.11133;959.2924;;;;
2019/10/18 00:34:36;;;;;;;6.7;4.2;;;;;;;13.5;78.52734;959.3579;;;;
2019/10/18 00:37:05;;;;;;;6.8;4.4;;;;;;;13.47;79.12305;959.3495;;;;
2019/10/18 00:39:29;;;;;;;6.2;4.2;;;;;;;13.5;78.57324;959.3563;;;;
2019/10/18 00:41:51;;;;;;;5.7;4.5;;;;;;;13.49;78.7793;959.3184;;;;
2019/10/18 00:44:17;;;;;;;7.4;4.5;;;;;;;13.43;79.16113;959.317;;;;
2019/10/18 00:46:42;;;;;;;5.2;4.3;;;;;;;13.55;78.34961;959.2287;;;;
2019/10/18 00:49:07;;;;;;;6.7;4.7;;;;;;;13.55;79.06641;959.1934;;;;
2019/10/18 00:51:32;;;;;;;8.2;4.6;;;;;;;13.6;79.14746;959.2086;;;;
2019/10/18 00:53:57;;;;;;;5.1;4.6;;;;;;;13.63;78.42188;959.2187;;;;
2019/10/18 00:56:22;;;;;;;5.9;4.7;;;;;;;13.55;78.43066;959.178;;;;
2019/10/18 00:58:47;;;;;;;6;4.7;;;;;;;13.54;79.06641;959.1526;;;;
2019/10/18 01:01:12;;;;;;;5.9;5;;;;;;;13.42;79.01074;959.0936;;;;
2019/10/18 01:03:37;;;;;;;5;4.3;;;;;;;13.5;79.44141;959.0795;;;;
2019/10/18 01:06:02;;;;;;;7.4;4.6;;;;;;;13.44;79.70898;959.0447;;;;
2019/10/18 01:08:27;;;;;;;5.4;4.4;;;;;;;13.49;79.52051;959.0481;;;;
2019/10/18 01:10:52;;;;;;;5.5;4.4;;;;;;;13.38;80.45117;959.0238;;;;
2019/10/18 01:13:17;;;;;;;5.5;4.4;;;;;;;13.47;80.1084;959.027;;;;
2019/10/18 01:15:43;;;;;;;6.7;4.5;;;;;;;13.45;79.97754;959.0144;;;;
2019/10/18 01:18:08;;;;;;;6;4.3;;;;;;;13.46;80.58008;959.0128;;;;
2019/10/18 01:20:33;;;;;;;5.6;4.5;;;;;;;13.4;80.39648;958.9174;;;;
2019/10/18 01:22:58;;;;;;;5.9;4.6;;;;;;;13.5;79.07031;958.9142;;;;
2019/10/18 01:25:23;;;;;;;7.5;4.8;;;;;;;13.44;79.68457;958.9481;;;;
2019/10/18 01:27:48;;;;;;;6.7;4.5;;;;;;;13.3;80.32031;958.9291;;;;
2019/10/18 01:30:13;;;;;;;5.7;4.8;;;;;;;13.27;80.87109;958.9207;;;;
2019/10/18 01:32:38;;;;;;;7.4;4.9;;;;;;;13.26;81.18164;958.9108;;;;
2019/10/18 01:35:03;;;;;;;7.4;4.6;;;;;;;13.34;80.21289;958.8689;;;;
2019/10/18 01:37:29;;;;;;;7.6;5;;;;;;;13.32;80.04492;958.8695;;;;
2019/10/18 01:39:54;;;;;;;7.3;5.1;;;;;;;13.27;80.36133;958.8544;;;;
2019/10/18 01:42:19;;;;;;;8;5.2;;;;;;;13.25;80.41406;958.8721;;;;
2019/10/18 01:44:55;;;;;;;6.2;4.6;;;;;;;13.21;80.06055;958.8176;;;;
2019/10/18 01:47:09;;;;;;;5.8;5;;;;;;;13.27;80.02539;958.7823;;;;
2019/10/18 01:49:34;;;;;;;7.8;5.3;;;;;;;13.16;81.56836;958.8158;;;;
2019/10/18 01:51:59;;;;;;;6.3;4.8;;;;;;;13.18;80.75;958.7878;;;;
2019/10/18 01:54:24;;;;;;;8.1;5.5;;;;;;;13.2;80.38281;958.7972;;;;
2019/10/18 01:56:49;;;;;;;6.9;5.3;;;;;;;13.23;80.36621;958.7786;;;;
2019/10/18 01:59:14;;;;;;;8.2;5.2;;;;;;;13.26;80.02246;958.7816;;;;
2019/10/18 02:01:39;;;;;;;6.3;4.8;;;;;;;13.21;80.04883;958.7816;;;;
2019/10/18 02:04:04;;;;;;;7;5;;;;;;;13.17;80.97852;958.7478;;;;
2019/10/18 02:06:30;;;;;;;8.1;4.8;;;;;;;13.23;80.06348;958.7188;;;;
2019/10/18 02:08:55;;;;;;;5.4;4.7;;;;;;;13.24;80.27539;958.6459;;;;
2019/10/18 02:11:20;;;;;;;8.3;5.1;;;;;;;13.21;80.50977;958.5598;;;;
2019/10/18 02:13:46;;;;;;;6.6;4.9;;;;;;;13.17;80.13281;958.5482;;;;
2019/10/18 02:16:11;;;;;;;7.6;4.7;;;;;;;13.2;80.49707;958.573;;;;
2019/10/18 02:18:36;;;;;;;6;4.9;;;;;;;13.24;80.1582;958.5461;;;;
2019/10/18 02:21:04;;;;;;;6.7;4.9;;;;;;;13.21;80.44238;958.469;;;;
2019/10/18 02:23:29;;;;;;;7.4;4.8;;;;;;;13.25;80.40234;958.4929;;;;
2019/10/18 02:25:52;;;;;;;5.8;4.6;;;;;;;13.26;80.01074;958.4739;;;;
2019/10/18 02:28:18;;;;;;;6;4.8;;;;;;;13.24;79.63672;958.5101;;;;
2019/10/18 02:30:43;;;;;;;6.5;4.8;;;;;;;13.27;79.93262;958.3748;;;;
2019/10/18 02:33:16;;;;;;;6.4;4.8;;;;;;;13.27;79.62988;958.3682;;;;
2019/10/18 02:35:40;;;;;;;6.7;4.9;;;;;;;13.19;79.61719;958.397;;;;
2019/10/18 02:37:58;;;;;;;7;4.8;;;;;;;13.33;79.28223;958.34;;;;
2019/10/18 02:40:23;;;;;;;6.5;4.9;;;;;;;13.36;79.92578;958.3156;;;;
2019/10/18 02:42:48;;;;;;;5.9;4.7;;;;;;;13.26;80.49707;958.3756;;;;
2019/10/18 02:45:13;;;;;;;6.2;4.1;;;;;;;13.26;80.6709;958.4469;;;;
2019/10/18 02:47:38;;;;;;;6.6;4.6;;;;;;;13.12;80.96973;958.483;;;;
2019/10/18 02:50:03;;;;;;;6.3;4.4;;;;;;;13.18;81.44336;958.4409;;;;
2019/10/18 02:52:28;;;;;;;5.7;4.4;;;;;;;13.07;82.09473;958.4818;;;;
2019/10/18 02:54:54;;;;;;;7.7;4.4;;;;;;;13.15;81.05566;958.5078;;;;
2019/10/18 02:57:19;;;;;;;5.1;4.5;;;;;;;13.19;81.36523;958.5309;;;;
2019/10/18 02:59:44;;;;;;;6.6;4.7;;;;;;;13.17;80.95508;958.5728;;;;
2019/10/18 03:02:09;;;;;;;6.6;4.2;;;;;;;13.2;80.33691;958.55;;;;
2019/10/18 03:04:34;;;;;;;7.4;4.3;;;;;;;13.15;80.7666;958.5128;;;;
2019/10/18 03:06:59;;;;;;;6.8;4.1;;;;;;;13.02;81.31055;958.4808;;;;
2019/10/18 03:09:25;;;;;;;5.7;4.4;;;;;;;13.18;80.7959;958.4933;;;;
2019/10/18 03:11:50;;;;;;;4.7;4;;;;;;;13.21;80.7334;958.4869;;;;
2019/10/18 03:14:15;;;;;;;7.2;4.3;;;;;;;13.22;81.09277;958.5336;;;;
2019/10/18 03:16:41;;;;;;;5.9;4.1;;;;;;;13.16;81.02441;958.5151;;;;
2019/10/18 03:19:06;;;;;;;5.2;4.3;;;;;;;13.18;80.99121;958.5359;;;;
2019/10/18 03:21:31;;;;;;;4.9;4;;;;;;;13.19;80.59961;958.5105;;;;
2019/10/18 03:23:57;;;;;;;6.3;4.3;;;;;;;13.28;79.31934;958.522;;;;
2019/10/18 03:26:22;;;;;;;8.6;4.4;;;;;;;13.17;78.95215;958.5703;;;;
2019/10/18 03:28:47;;;;;;;6.3;4.3;;;;;;;13.17;78.74414;958.5572;;;;
2019/10/18 03:31:13;;;;;;;6.7;4.2;;;;;;;13.21;79.0293;958.5213;;;;
2019/10/18 03:33:38;;;;;;;7.1;4;;;;;;;13.27;79.25;958.5172;;;;
2019/10/18 03:36:03;;;;;;;6.5;4.4;;;;;;;13.29;79.19336;958.4274;;;;
2019/10/18 03:38:28;;;;;;;4.9;3.9;;;;;;;13.18;79.69434;958.4925;;;;
2019/10/18 03:40:53;;;;;;;5.9;4.2;;;;;;;13.16;80.41113;958.5343;;;;
2019/10/18 03:43:18;;;;;;;5.2;4.1;;;;;;;13.25;79.73145;958.5704;;;;
2019/10/18 03:45:43;;;;;;;6.4;4.2;;;;;;;13.24;79.91602;958.5756;;;;
2019/10/18 03:48:40;;;;;;;5.7;4.4;;;;;;;13.25;80.32129;958.6147;;;;
2019/10/18 03:51:05;;;;;;;7.4;4.2;;;;;;;13.23;79.79688;958.5936;;;;
2019/10/18 03:53:30;;;;;;;5.9;4.1;;;;;;;13.24;80.05371;958.5649;;;;
2019/10/18 03:55:55;;;;;;;6.5;3.7;;;;;;;13.31;79.15137;958.4838;;;;
2019/10/18 03:58:20;;;;;;;6.5;4.2;;;;;;;13.2;80.12598;958.5419;;;;
2019/10/18 04:02:29;;;;;;;5.5;3.9;;;;;;;13.26;80.11523;958.563;;;;
2019/10/18 04:04:54;;;;;;;5.7;3.9;;;;;;;13.28;79.33203;958.5412;;;;
2019/10/18 04:07:19;;;;;;;7.6;4.2;;;;;;;13.26;80.32324;958.5106;;;;
2019/10/18 04:09:44;;;;;;;6.8;4.3;;;;;;;13.32;79.54688;958.4742;;;;
2019/10/18 04:12:09;;;;;;;3.9;3.3;;;;;;;13.25;79.8584;958.4612;;;;
2019/10/18 04:14:34;;;;;;;5.9;3.6;;;;;;;13.2;80.49902;958.4158;;;;
2019/10/18 04:16:59;;;;;;;6.2;3.6;;;;;;;13.29;78.82227;958.4012;;;;
2019/10/18 04:19:24;;;;;;;4.9;3.6;;;;;;;13.23;80.73535;958.353;;;;
2019/10/18 04:21:49;;;;;;;5;3.7;;;;;;;13.24;80.63281;958.3555;;;;
2019/10/18 04:24:15;;;;;;;5.5;4;;;;;;;13.26;80.2207;958.3781;;;;
2019/10/18 04:26:40;;;;;;;7.3;3.9;;;;;;;13.23;80.82813;958.3456;;;;
2019/10/18 04:29:05;;;;;;;5.6;3.9;;;;;;;13.26;80.86719;958.3928;;;;
2019/10/18 04:31:30;;;;;;;6.4;4;;;;;;;13.37;79.24414;958.315;;;;
2019/10/18 04:33:55;;;;;;;5.9;4;;;;;;;13.3;79.8916;958.3169;;;;
2019/10/18 04:36:20;;;;;;;5.9;4;;;;;;;13.25;79.91602;958.2796;;;;
2019/10/18 04:38:45;;;;;;;4.8;3.6;;;;;;;13.26;79.98926;958.2856;;;;
2019/10/18 04:41:10;;;;;;;5.9;3.8;;;;;;;13.21;80.91699;958.3265;;;;
2019/10/18 04:43:35;;;;;;;5.2;3.8;;;;;;;13.26;79.58398;958.3208;;;;
2019/10/18 04:46:00;;;;;;;5.8;4.1;;;;;;;13.3;80.23926;958.3398;;;;
2019/10/18 04:48:26;;;;;;;8.6;4.1;;;;;;;13.25;80.57617;958.3717;;;;
2019/10/18 04:50:51;;;;;;;6.3;3.7;;;;;;;13.19;80.3584;958.4306;;;;
2019/10/18 04:53:16;;;;;;;5.3;3.9;;;;;;;13.22;80.1543;958.484;;;;
2019/10/18 04:55:41;;;;;;;6.3;3.7;;;;;;;13.24;80.3916;958.3906;;;;
2019/10/18 04:58:06;;;;;;;5.8;3.9;;;;;;;13.16;80.7334;958.3908;;;;
2019/10/18 05:00:31;;;;;;;6;3.8;;;;;;;13.15;80.88281;958.4522;;;;
2019/10/18 05:02:56;;;;;;;6.5;3.9;;;;;;;13.19;80.55469;958.4387;;;;
2019/10/18 05:05:21;;;;;;;5.9;3.9;;;;;;;13.2;81.20313;958.4142;;;;
2019/10/18 05:07:46;;;;;;;5.4;3.7;;;;;;;13.2;80.54492;958.4461;;;;
2019/10/18 05:10:11;;;;;;;6.8;4.3;;;;;;;13.26;79.65332;958.3912;;;;
2019/10/18 05:12:36;;;;;;;9.6;4.5;;;;;;;13.22;79.56445;958.3276;;;;
2019/10/18 05:15:02;;;;;;;5.7;4;;;;;;;13.14;80.23242;958.296;;;;
2019/10/18 05:17:27;;;;;;;6.1;3.7;;;;;;;13.2;79.72266;958.1941;;;;
2019/10/18 05:19:52;;;;;;;7.3;3.9;;;;;;;13.08;79.62012;958.1916;;;;
2019/10/18 05:22:17;;;;;;;6.5;3.4;;;;;;;12.96;81.19434;958.1425;;;;
2019/10/18 05:24:42;;;;;;;5.4;4;;;;;;;12.92;81.05859;958.2131;;;;
2019/10/18 05:27:07;;;;;;;7.5;3.9;;;;;;;13.02;80.88086;958.1953;;;;
2019/10/18 05:29:32;;;;;;;6.4;3.8;;;;;;;12.93;80.29883;958.2339;;;;
2019/10/18 05:31:57;;;;;;;5.5;3.9;;;;;;;12.99;80.59766;958.2605;;;;
2019/10/18 05:34:22;;;;;;;10.4;3.7;;;;;;;13.06;78.86328;958.2167;;;;
2019/10/18 05:36:47;;;;;;;6.8;3.7;;;;;;;12.95;80.83398;958.1941;;;;
2019/10/18 05:39:12;;;;;;;7.7;4.2;;;;;;;13.01;79.24805;958.222;;;;
2019/10/18 05:41:38;;;;;;;5.4;3.9;;;;;;;13.02;79.91016;958.2452;;;;
2019/10/18 05:44:03;;;;;;;5.7;3.6;;;;;;;12.91;81.23047;958.2459;;;;
2019/10/18 05:46:28;;;;;;;6;3.6;;;;;;;12.9;81.06836;958.2541;;;;
2019/10/18 05:48:53;;;;;;;6.8;3.9;;;;;;;12.86;81.59082;958.2797;;;;
2019/10/18 05:51:18;;;;;;;5.9;3.6;;;;;;;12.71;82.79004;958.3864;;;;
2019/10/18 05:53:43;;;;;;;11.7;4.3;;;;;;;12.71;82.25684;958.3529;;;;
2019/10/18 05:56:08;;;;;;;8.5;4.6;;;;;;;12.64;82.58203;958.4211;;;;
2019/10/18 05:58:33;;;;;;;7.4;3.9;;;;;;;12.71;82.55859;958.3897;;;;
2019/10/18 06:00:58;;;;;;;11.1;4.7;;;;;;;12.62;82.3916;958.4064;;;;
2019/10/18 06:03:23;;;;;;;8;4.4;;;;;;;12.69;82.79785;958.4355;;;;
2019/10/18 06:05:48;;;;;;;7.5;4.4;;;;;;;12.65;82.21191;958.3908;;;;
2019/10/18 06:08:13;;;;;;;9.5;4.1;;;;;;;12.63;83.37598;958.3156;;;;
2019/10/18 06:10:38;;;;;;;9.9;4.5;;;;;;;12.61;82.84082;958.3006;;;;
2019/10/18 06:13:04;;;;;;;8.2;4.9;;;;;;;12.43;84.49414;958.3201;;;;
2019/10/18 06:15:29;;;;;;;8.3;4.4;;;;;;;12.64;82.47559;958.2787;;;;
2019/10/18 06:17:54;;;;;;;8.4;4.8;;;;;;;12.45;83.96582;958.3262;;;;
2019/10/18 06:20:19;;;;;;;9.7;5.1;;;;;;;12.56;83.01563;958.2494;;;;
2019/10/18 06:22:44;;;;;;;10.2;4.9;;;;;;;12.54;83.52051;958.2576;;;;
2019/10/18 06:25:21;;;;;;;10;4.7;;;;;;;12.74;81.97363;958.2771;;;;
2019/10/18 06:27:46;;;;;;;14.1;5.5;;;;;;;12.68;82.85449;958.3159;;;;
2019/10/18 06:30:11;;;;;;;10.4;5.2;;;;;;;12.71;81.59863;958.2739;;;;
2019/10/18 06:32:36;;;;;;;11.8;4.9;;;;;;;12.81;81.69824;958.2525;;;;
2019/10/18 06:35:01;;;;;;;14.6;5.2;;;;;;;12.84;82.0752;958.2986;;;;
2019/10/18 06:37:26;;;;;;;8.7;4.8;;;;;;;12.87;81.44434;958.2441;;;;
2019/10/18 06:39:51;;;;;;;9.3;4.7;;;;;;;12.9;80.74316;958.2802;;;;
2019/10/18 06:42:16;;;;;;;8.3;4.7;;;;;;;12.85;81.47363;958.2896;;;;
2019/10/18 06:44:41;;;;;;;8.5;4.9;;;;;;;12.99;80.99121;958.2924;;;;
2019/10/18 06:47:06;;;;;;;12.5;5.5;;;;;;;13.02;80.85938;958.2689;;;;
2019/10/18 06:49:31;;;;;;;9.7;5.2;;;;;;;13.01;81.5752;958.3156;;;;
2019/10/18 06:51:57;;;;;;;9.1;5.4;;;;;;;12.99;81.74316;958.3325;;;;
2019/10/18 06:54:22;;;;;;;10.1;5.6;;;;;;;12.95;82.50098;958.3965;;;;
2019/10/18 06:56:47;;;;;;;9.8;5.2;;;;;;;13.02;82.10742;958.3908;;;;
2019/10/18 06:59:16;;;;;;;10;4.9;;;;;;;13.11;81.30371;958.4561;;;;
2019/10/18 07:01:39;;;;;;;11.4;5;;;;;;;13.16;79.67969;958.3801;;;;
2019/10/18 07:04:02;;;;;;;12.8;5.1;;;;;;;13.1;81.32422;958.4042;;;;
2019/10/18 07:06:27;;;;;;;13.8;5.7;;;;;;;13.07;80.71875;958.3692;;;;
2019/10/18 07:08:52;;;;;;;10.3;4.7;;;;;;;12.99;80.40137;958.3309;;;;
2019/10/18 07:11:17;;;;;;;11.4;4.7;;;;;;;12.97;81.27734;958.3666;;;;
2019/10/18 07:13:43;;;;;;;9.1;4.6;;;;;;;12.96;82.24805;958.2791;;;;
2019/10/18 07:16:08;;;;;;;8.2;4.5;;;;;;;13.03;80.7334;958.2852;;;;
2019/10/18 07:18:33;;;;;;;9.5;4.5;;;;;;;13;81.50195;958.2908;;;;
2019/10/18 07:20:58;;;;;;;8.1;4.6;;;;;;;12.97;82.27441;958.2758;;;;
2019/10/18 07:23:23;;;;;;;7.1;4.1;;;;;;;13.01;81.29688;958.345;;;;
2019/10/18 07:25:48;;;;;;;9.9;3.9;;;;;;;13.12;80.93359;958.3259;;;;
2019/10/18 07:28:13;;;;;;;7.6;4;;;;;;;13.19;79.55859;958.3214;;;;
2019/10/18 07:30:38;;;;;;;11.3;4.8;;;;;;;13.27;79.04102;958.3126;;;;
2019/10/18 07:33:04;;;;;;;6.9;4.1;;;;;;;13.37;79.52246;958.3445;;;;
2019/10/18 07:35:29;;;;;;;11.2;6.8;;;;;;;13.37;80.26367;958.3052;;;;
2019/10/18 07:37:54;;;;;;;11.2;5.2;;;;;;;13.39;80.08008;958.3699;;;;
2019/10/18 07:40:19;;;;;;;8.2;4.7;;;;;;;13.44;81.15527;958.3596;;;;
2019/10/18 07:42:44;;;;;;;9.5;4.8;;;;;;;13.54;79.44922;958.3797;;;;
2019/10/18 07:45:09;;;;;;;9.1;4.5;;;;;;;13.59;80.39648;958.4333;;;;
2019/10/18 07:47:34;;;;;;;12.4;4;;;;;;;13.78;76.66211;958.435;;;;
2019/10/18 07:50:00;;;;;;;8.2;3.9;;;;;;;13.85;76.59375;958.4436;;;;
2019/10/18 07:52:25;;;;;;;9.2;3.9;;;;;;;13.82;78.07324;958.455;;;;
2019/10/18 07:54:51;;;;;;;6.5;3.8;;;;;;;13.81;78.08398;958.4473;;;;
2019/10/18 07:57:16;;;;;;;6.4;4;;;;;;;13.87;78.19727;958.4656;;;;
2019/10/18 07:59:41;;;;;;;10.4;4;;;;;;;13.86;77.29102;958.4625;;;;
2019/10/18 08:02:07;;;;;;;9;4;;;;;;;13.83;78.45801;958.5204;;;;
2019/10/18 08:04:32;;;;;;;9.6;3.6;;;;;;;13.99;78.32422;958.4456;;;;
2019/10/18 08:06:57;;;;;;;6.1;3.6;;;;;;;14.13;76.59766;958.4487;;;;
2019/10/18 08:09:22;;;;;;;6.2;3.7;;;;;;;14.19;76.88574;958.4547;;;;
2019/10/18 08:11:47;;;;;;;6.2;4;;;;;;;14.26;77.79199;958.4196;;;;
2019/10/18 08:14:12;;;;;;;9.8;4.2;;;;;;;14.19;77.10645;958.317;;;;
2019/10/18 08:16:37;;;;;;;8.2;3.9;;;;;;;14.3;77.20801;958.3625;;;;
2019/10/18 08:19:03;;;;;;;8.9;3.9;;;;;;;14.53;76.17969;958.3737;;;;
2019/10/18 08:21:28;;;;;;;5.8;3.7;;;;;;;14.56;75.2793;958.3582;;;;
2019/10/18 08:23:53;;;;;;;7.8;3.7;;;;;;;14.59;75.55176;958.2483;;;;
2019/10/18 08:26:19;;;;;;;4.3;3.2;;;;;;;14.67;74.56738;958.2238;;;;
2019/10/18 08:28:44;;;;;;;6.8;3.6;;;;;;;14.63;74.68652;958.1589;;;;
2019/10/18 08:31:09;;;;;;;6.3;3.6;;;;;;;14.64;76.16309;958.1829;;;;
2019/10/18 08:33:34;;;;;;;6.5;3.5;;;;;;;14.65;75.53906;958.1097;;;;
2019/10/18 08:35:59;;;;;;;12.5;3.5;;;;;;;14.61;77.09961;957.9465;;;;
2019/10/18 08:38:24;;;;;;;10.4;3.9;;;;;;;14.65;74.7373;957.9023;;;;
2019/10/18 08:40:50;;;;;;;13;4.3;;;;;;;14.69;74.38184;957.8702;;;;
2019/10/18 08:43:15;;;;;;;9.7;3.7;;;;;;;14.61;76.50684;957.9244;;;;
2019/10/18 08:45:40;;;;;;;6.2;3.6;;;;;;;14.61;76.91406;958.0089;;;;
2019/10/18 08:48:06;;;;;;;9;4.1;;;;;;;14.72;75.73633;958.0386;;;;
2019/10/18 08:50:31;;;;;;;9.8;3.9;;;;;;;14.92;74.63086;958.0475;;;;
2019/10/18 08:52:56;;;;;;;6.5;3.5;;;;;;;14.98;75.1543;958.008;;;;
2019/10/18 08:55:21;;;;;;;9.4;3.6;;;;;;;15.12;74.30566;957.9563;;;;
2019/10/18 08:57:46;;;;;;;5.7;3.4;;;;;;;15.29;74.33398;957.9651;;;;
2019/10/18 09:00:11;;;;;;;5;3;;;;;;;15.47;72.21191;957.9278;;;;
2019/10/18 09:02:37;;;;;;;4.4;3;;;;;;;15.51;75.03613;957.9087;;;;
2019/10/18 09:05:02;;;;;;;6.3;3.1;;;;;;;15.6;72.9541;957.8887;;;;
2019/10/18 09:07:27;;;;;;;6.4;3;;;;;;;15.86;70.23828;957.8231;;;;
2019/10/18 09:09:52;;;;;;;6.6;3.1;;;;;;;16;69.38672;957.8223;;;;
2019/10/18 09:12:18;;;;;;;7.2;3.1;;;;;;;16.13;69.89648;957.8028;;;;
2019/10/18 09:14:43;;;;;;;9.2;2.9;;;;;;;16.04;72.04883;957.7762;;;;
2019/10/18 09:17:08;;;;;;;5.4;2.4;;;;;;;16.22;68.73145;957.7778;;;;
2019/10/18 09:19:33;;;;;;;7.3;2.7;;;;;;;16.13;70.61914;957.7239;;;;
2019/10/18 09:21:58;;;;;;;3.5;2.3;;;;;;;16.23;68.12793;957.632;;;;
2019/10/18 09:24:23;;;;;;;6.8;2.3;;;;;;;16.21;69.54785;957.623;;;;
2019/10/18 09:26:49;;;;;;;5.9;2.3;;;;;;;16.36;70.80859;957.6097;;;;
2019/10/18 09:29:14;;;;;;;5.4;2.4;;;;;;;16.54;67.53516;957.5922;;;;
2019/10/18 09:31:39;;;;;;;5.3;2.3;;;;;;;16.5;68.30957;957.6376;;;;
2019/10/18 09:34:04;;;;;;;2.7;2;;;;;;;16.7;67.29102;957.6329;;;;
2019/10/18 09:36:30;;;;;;;5.2;2.2;;;;;;;16.67;66.44531;957.6438;;;;
2019/10/18 09:38:55;;;;;;;5.9;2.2;;;;;;;16.73;66.3252;957.5933;;;;
2019/10/18 09:41:20;;;;;;;5.1;2.2;;;;;;;16.7;67.99023;957.637;;;;
2019/10/18 09:43:45;;;;;;;4;2.1;;;;;;;16.71;68.77344;957.7134;;;;
2019/10/18 09:46:11;;;;;;;6.4;2.2;;;;;;;16.96;65.71777;957.7313;;;;
2019/10/18 09:48:36;;;;;;;4.1;1.9;;;;;;;16.95;67.91406;957.7256;;;;
2019/10/18 09:51:01;;;;;;;5.1;2.2;;;;;;;16.94;67.16504;957.6484;;;;
2019/10/18 09:53:26;;;;;;;5;1.9;;;;;;;17.11;65.4375;957.6574;;;;
2019/10/18 09:55:51;;;;;;;5.1;1.9;;;;;;;17.04;65.24121;957.673;;;;
2019/10/18 09:58:17;;;;;;;5.2;1.7;;;;;;;17.14;65.83984;957.6351;;;;
2019/10/18 10:00:42;;;;;;;4.3;1.7;;;;;;;17.27;65.44922;957.5753;;;;
2019/10/18 10:03:07;;;;;;;3.7;1.9;;;;;;;17.32;65.35254;957.5798;;;;
2019/10/18 10:05:32;;;;;;;2.6;1.4;;;;;;;17.49;62.91016;957.5522;;;;
2019/10/18 10:07:57;;;;;;;3.5;1.5;;;;;;;17.49;63.19141;957.6172;;;;
2019/10/18 10:10:23;;;;;;;4.7;1.6;;;;;;;17.47;64.25098;957.5048;;;;
2019/10/18 10:12:48;;;;;;;5.1;1.6;;;;;;;17.56;63.30566;957.4394;;;;
2019/10/18 10:15:13;;;;;;;5.2;1.7;;;;;;;17.61;63.60547;957.3826;;;;
2019/10/18 10:17:38;;;;;;;3.4;1.7;;;;;;;17.83;62.36133;957.3861;;;;
2019/10/18 10:20:03;;;;;;;3.1;1.7;;;;;;;17.77;63.74707;957.3837;;;;
2019/10/18 10:22:29;;;;;;;3;1.5;;;;;;;17.89;62.51172;957.3401;;;;
2019/10/18 10:24:54;;;;;;;2.7;1.4;;;;;;;17.84;62.31543;957.2839;;;;
2019/10/18 10:27:19;;;;;;;2.1;1.3;;;;;;;17.96;62.40332;957.2855;;;;
2019/10/18 10:29:44;;;;;;;3.1;1.4;;;;;;;18.03;62.60059;957.2755;;;;
2019/10/18 10:32:09;;;;;;;3.6;1.5;;;;;;;18.1;61.99023;957.2523;;;;
2019/10/18 10:34:35;;;;;;;2.2;1.1;;;;;;;18.12;62.53223;957.2162;;;;
2019/10/18 10:37:00;;;;;;;4.2;1.6;;;;;;;18.11;62.10938;957.2233;;;;
2019/10/18 10:39:25;;;;;;;4.2;1.5;;;;;;;17.97;62.9082;957.1353;;;;
2019/10/18 10:41:51;;;;;;;2.1;1.3;;;;;;;17.98;62.25391;957.1188;;;;
2019/10/18 10:44:16;;;;;;;2;1.6;;;;;;;18.05;61.94629;957.0898;;;;
2019/10/18 10:46:41;;;;;;;3.6;1.4;;;;;;;18.02;62.14355;957.0876;;;;
2019/10/18 10:49:07;;;;;;;2.6;1.5;;;;;;;18.09;62.56348;957.0584;;;;
2019/10/18 10:51:32;;;;;;;3;1.4;;;;;;;18.2;62.50781;956.9835;;;;
2019/10/18 10:53:57;;;;;;;3.7;1.4;;;;;;;18.13;63.73926;956.9509;;;;
2019/10/18 10:56:22;;;;;;;3.4;1.6;;;;;;;18.34;61.29688;956.9675;;;;
2019/10/18 10:58:47;;;;;;;3.3;1.6;;;;;;;18.32;62.40723;956.9653;;;;
2019/10/18 11:01:12;;;;;;;2.4;1.5;;;;;;;18.45;60.99707;956.9547;;;;
2019/10/18 11:03:38;;;;;;;4.5;1.8;;;;;;;18.69;60.91309;956.855;;;;
2019/10/18 11:06:03;;;;;;;3.3;1.4;;;;;;;18.55;61.1748;956.8577;;;;
2019/10/18 11:08:28;;;;;;;2.7;1.4;;;;;;;18.64;60.34277;956.7605;;;;
2019/10/18 11:10:53;;;;;;;3.7;1.4;;;;;;;18.66;60.65039;956.6791;;;;
2019/10/18 11:13:18;;;;;;;4.4;1.4;;;;;;;18.88;59.8584;956.6492;;;;
2019/10/18 11:15:44;;;;;;;3.4;1.5;;;;;;;18.7;61.1123;956.7355;;;;
2019/10/18 11:18:09;;;;;;;5;1.6;;;;;;;18.73;60.92969;956.7031;;;;
2019/10/18 11:20:34;;;;;;;3.1;1.4;;;;;;;18.62;61.52344;956.6956;;;;
2019/10/18 11:22:59;;;;;;;2.8;1.5;;;;;;;18.53;61.52246;956.6764;;;;
2019/10/18 11:25:25;;;;;;;3.1;1.5;;;;;;;18.54;61.40625;956.6027;;;;
2019/10/18 11:27:50;;;;;;;4.5;1.5;;;;;;;18.77;60.8877;956.575;;;;
2019/10/18 11:30:15;;;;;;;2.6;1.4;;;;;;;18.57;61.42285;956.5302;;;;
2019/10/18 11:32:40;;;;;;;2.5;1.3;;;;;;;18.45;63.14063;956.5069;;;;
2019/10/18 11:35:06;;;;;;;2.5;1.4;;;;;;;18.48;60.32129;956.4889;;;;
2019/10/18 11:37:31;;;;;;;3.8;1.3;;;;;;;18.4;60.20508;956.4648;;;;
2019/10/18 11:39:56;;;;;;;2.2;1.3;;;;;;;18.35;61.1709;956.4192;;;;
2019/10/18 11:42:21;;;;;;;2.2;1.3;;;;;;;18.48;60.75488;956.4221;;;;
2019/10/18 11:44:46;;;;;;;2.7;1.3;;;;;;;18.52;61.3584;956.41;;;;
2019/10/18 11:47:12;;;;;;;3;1.2;;;;;;;18.57;61.79883;956.4476;;;;
2019/10/18 11:49:37;;;;;;;2.4;1.3;;;;;;;18.57;61.44531;956.4478;;;;
2019/10/18 11:52:02;;;;;;;2.3;1.3;;;;;;;18.69;61.62793;956.3063;;;;
2019/10/18 11:54:27;;;;;;;2.5;1.2;;;;;;;18.85;61.23926;956.3127;;;;
2019/10/18 11:56:52;;;;;;;2.8;1.2;;;;;;;18.83;61.71582;956.3206;;;;
2019/10/18 11:59:18;;;;;;;2.6;1.3;;;;;;;18.81;61.01172;956.2952;;;;
2019/10/18 12:01:43;;;;;;;2.6;1.2;;;;;;;18.92;60.07715;956.2444;;;;
2019/10/18 12:04:08;;;;;;;2.3;1.2;;;;;;;18.85;59.84375;956.2584;;;;
2019/10/18 12:06:33;;;;;;;1.6;1.1;;;;;;;18.82;59.82813;956.2242;;;;
2019/10/18 12:08:59;;;;;;;1.9;1.2;;;;;;;18.9;61.84473;956.3141;;;;
2019/10/18 12:11:24;;;;;;;3;1.3;;;;;;;18.93;62.29492;956.2573;;;;
2019/10/18 12:13:49;;;;;;;3.6;1.4;;;;;;;18.92;60.62891;956.2932;;;;
2019/10/18 12:16:14;;;;;;;3.6;1.2;;;;;;;18.83;59.5;956.3157;;;;
2019/10/18 12:18:39;;;;;;;2.1;1;;;;;;;18.95;60.24414;956.2498;;;;
2019/10/18 12:21:04;;;;;;;3;1.2;;;;;;;18.9;60.33203;956.2488;;;;
2019/10/18 12:23:30;;;;;;;3.1;1.1;;;;;;;18.99;60.51953;956.2067;;;;
2019/10/18 12:25:55;;;;;;;2.1;1.3;;;;;;;18.87;61.96973;956.1901;;;;
2019/10/18 12:28:20;;;;;;;2.3;1.1;;;;;;;18.96;62.34473;956.1323;;;;
2019/10/18 12:30:46;;;;;;;3.3;1.4;;;;;;;18.84;61.49609;956.1024;;;;
2019/10/18 12:33:11;;;;;;;3;1.5;;;;;;;18.85;63.11621;956.1403;;;;
2019/10/18 12:35:36;;;;;;;3.6;1.3;;;;;;;18.66;64.21484;956.1408;;;;
2019/10/18 12:38:01;;;;;;;2.1;1.3;;;;;;;18.73;62.03223;956.0994;;;;
2019/10/18 12:40:27;;;;;;;2.2;1.2;;;;;;;18.76;63.70117;956.0461;;;;
2019/10/18 12:42:52;;;;;;;3.1;1.3;;;;;;;18.79;64.19922;956.0546;;;;
2019/10/18 12:45:18;;;;;;;4.2;1.7;;;;;;;18.81;62.08984;956.0524;;;;
2019/10/18 12:47:43;;;;;;;5.5;1.8;;;;;;;18.91;61.25977;955.9731;;;;
2019/10/18 12:50:08;;;;;;;1.9;1.1;;;;;;;18.94;60.88867;956.0112;;;;
2019/10/18 12:52:33;;;;;;;3.1;1.5;;;;;;;19;60.62695;956.0712;;;;
2019/10/18 12:54:58;;;;;;;3;1.5;;;;;;;19;60.4502;956.015;;;;
2019/10/18 12:57:23;;;;;;;2.3;1.4;;;;;;;19.06;60.92773;956.033;;;;
2019/10/18 12:59:49;;;;;;;6;1.6;;;;;;;19.29;60.38477;956.0256;;;;
2019/10/18 13:02:14;;;;;;;3.7;1.6;;;;;;;19.19;60.30078;956.0616;;;;
2019/10/18 13:04:39;;;;;;;2.4;1.5;;;;;;;19.14;60.8916;956.0535;;;;
2019/10/18 13:07:05;;;;;;;4.2;1.6;;;;;;;19.1;60.76953;956.0602;;;;
2019/10/18 13:09:31;;;;;;;3.9;1.6;;;;;;;19.06;60.44727;956.1122;;;;
2019/10/18 13:11:56;;;;;;;3.3;1.4;;;;;;;19.1;60.54785;956.079;;;;
2019/10/18 13:14:21;;;;;;;3.6;1.5;;;;;;;19.09;60.94336;956.0861;;;;
2019/10/18 13:16:46;;;;;;;5.1;1.6;;;;;;;19.02;60.61816;956.0541;;;;
2019/10/18 13:19:12;;;;;;;5.1;1.7;;;;;;;19.02;60.40625;956.1219;;;;
2019/10/18 13:21:37;;;;;;;5.7;2;;;;;;;18.96;60.85645;956.0932;;;;
2019/10/18 13:24:02;;;;;;;3.3;1.5;;;;;;;18.82;63.87402;956.054;;;;
2019/10/18 13:26:27;;;;;;;3.1;1.4;;;;;;;18.81;62.11426;956.0011;;;;
2019/10/18 13:28:52;;;;;;;3.5;1.4;;;;;;;18.73;64.71777;956.0053;;;;
2019/10/18 13:31:18;;;;;;;4.8;1.9;;;;;;;18.58;66.6875;956.0022;;;;
2019/10/18 13:33:43;;;;;;;3.8;1.6;;;;;;;18.72;62.68652;956.0075;;;;
2019/10/18 13:36:08;;;;;;;4.5;1.6;;;;;;;18.67;63.00781;956.074;;;;
2019/10/18 13:38:33;;;;;;;2.8;1.5;;;;;;;18.74;62.63184;956.0911;;;;
2019/10/18 13:40:58;;;;;;;3.6;1.4;;;;;;;18.76;62.51758;956.0923;;;;
2019/10/18 13:43:23;;;;;;;3.9;1.3;;;;;;;18.76;62.48242;956.1583;;;;
2019/10/18 13:45:49;;;;;;;3.6;1.5;;;;;;;18.78;62.73047;956.1638;;;;
2019/10/18 13:48:14;;;;;;;3.2;1.5;;;;;;;18.64;63.43848;956.1769;;;;
2019/10/18 13:50:39;;;;;;;2.3;1.4;;;;;;;18.7;63.98633;956.1674;;;;
2019/10/18 13:53:05;;;;;;;4.9;1.6;;;;;;;18.65;64.27148;956.2104;;;;
2019/10/18 13:55:30;;;;;;;2.6;1.2;;;;;;;18.71;64.72656;956.2994;;;;
2019/10/18 13:57:55;;;;;;;3.6;1.5;;;;;;;18.71;65.00781;956.2952;;;;
2019/10/18 14:00:20;;;;;;;2.5;1.4;;;;;;;18.69;64.2666;956.3145;;;;
2019/10/18 14:02:45;;;;;;;4.7;1.7;;;;;;;18.63;64.99609;956.3508;;;;
2019/10/18 14:05:10;;;;;;;4.4;1.6;;;;;;;18.81;65.24707;956.3801;;;;
2019/10/18 14:07:36;;;;;;;4.6;1.8;;;;;;;18.72;65.58203;956.3865;;;;
2019/10/18 14:10:01;;;;;;;4.3;2;;;;;;;18.61;66.08398;956.34;;;;
2019/10/18 14:12:26;;;;;;;4;2;;;;;;;18.49;66.54492;956.4319;;;;
2019/10/18 14:14:51;;;;;;;2.6;1.5;;;;;;;18.57;66.13379;956.3967;;;;
2019/10/18 14:17:17;;;;;;;4.7;1.5;;;;;;;18.69;66.30664;956.4216;;;;